FFT weather

Capital City Airport
Frankfort, Kentucky, United States

Public forecast

Using degrees Fahrenheit for public forecast. Weather courtesy of forecast.io.

METAR (pilot weather report)

Retrieved 2019/05/23 08:53 UTC (7 minutes ago):

KFFT 230853Z AUTO 19004KT 10SM FEW070 FEW085 22/16 A3008 RMK AO2 SLP178 T02170156 53004

TAF (pilot weather forecast)

Closest forecast is Blue Grass Airport, 16.6 nm (30.8 km) ESE. Retrieved 2019/05/23 06:36 UTC (2 hours ago):

TAF KLEX 230535Z 2306/2406 17007KT P6SM SCT060 BKN250 FM231400 22015G22KT P6SM SCT040 BKN200 PROB30 2320/2323 4SM TSRA BR BKN035CB FM232300 23009KT P6SM SCT030 BKN200